PWSweather.com
Personal Weather Stations
Station Observations

OlomoucCZ

Lat: 49.5936202181, Lon: 17.2276005149

Elevation: 752

Station Type: Davis Vantage Pro 2 Activ

http://infopocasi-olomouc.cz

High Low Average
Temperature 23.1°F-4.9°C 12.3°F-10.9°C 18.1°F-7.7°C
Dew Point 22.1°F-5.5°C 10.7°F-11.8°C 16.8°F-8.4°C
Winds 3.5 mph 5.6 kmh Calm Calm 1.0 mph W1.6 kmh W
Wind Gusts 5.8 mph9.3 kmh -- 2.0 mph3.2 kmh
Humidity 96% 93% 95%
Pressure 29.69 in1005.4 mb 29.59 in1002.0 mb -
Precipitation 0.00 in0.0 mm - -
Hour Temp Dew Point Humidity Winds Wind Gusts Pressure Precip Precip Rate Daily Precip Total
12:00 AM 22.5°F-5.3°C 21.0°F-6.1°C 94% 1.2 mph W1.9 kmh W 2.3 mph3.7 kmh 29.69 in1005.4 mb - 0.00 in0.0 mm 0.00 in0.0 mm
12:30 AM 21.0°F-6.1°C 19.5°F-6.9°C 94% 1.2 mph NW1.9 kmh NW 3.5 mph5.6 kmh 29.69 in1005.4 mb - 0.00 in0.0 mm 0.00 in0.0 mm
01:00 AM 20.6°F-6.3°C 19.4°F-7.0°C 95% 1.2 mph NW1.9 kmh NW 2.3 mph3.7 kmh 29.68 in1005.1 mb - 0.00 in0.0 mm 0.00 in0.0 mm
01:30 AM 19.5°F-6.9°C 18.3°F-7.6°C 95% 1.2 mph NW1.9 kmh NW 2.3 mph3.7 kmh 29.67 in1004.7 mb - 0.00 in0.0 mm 0.00 in0.0 mm
02:00 AM 17.3°F-8.2°C 15.9°F-8.9°C 94% 1.2 mph NW1.9 kmh NW 1.2 mph1.9 kmh 29.66 in1004.4 mb - 0.00 in0.0 mm 0.00 in0.0 mm
02:30 AM 16.2°F-8.8°C 15.0°F-9.4°C 95% Calm Calm 1.2 mph1.9 kmh 29.65 in1004.1 mb - 0.00 in0.0 mm 0.00 in0.0 mm
03:00 AM 15.7°F-9.1°C 14.3°F-9.8°C 94% 2.3 mph NW3.7 kmh NW 3.5 mph5.6 kmh 29.64 in1003.7 mb - 0.00 in0.0 mm 0.00 in0.0 mm
03:30 AM 15.5°F-9.2°C 14.0°F-10.0°C 94% 1.2 mph W1.9 kmh W 2.3 mph3.7 kmh 29.63 in1003.4 mb - 0.00 in0.0 mm 0.00 in0.0 mm
04:00 AM 14.9°F-9.5°C 13.5°F-10.3°C 94% 1.2 mph WSW1.9 kmh WSW 3.5 mph5.6 kmh 29.63 in1003.4 mb - 0.00 in0.0 mm 0.00 in0.0 mm
04:30 AM 14.7°F-9.6°C 13.3°F-10.4°C 94% 1.2 mph WSW1.9 kmh WSW 1.2 mph1.9 kmh 29.63 in1003.4 mb - 0.00 in0.0 mm 0.00 in0.0 mm
05:00 AM 14.1°F-9.9°C 12.5°F-10.8°C 93% Calm Calm -- 29.62 in1003.0 mb - 0.00 in0.0 mm 0.00 in0.0 mm
05:30 AM 13.3°F-10.4°C 11.7°F-11.3°C 93% 1.2 mph NNW1.9 kmh NNW 2.3 mph3.7 kmh 29.62 in1003.0 mb - 0.00 in0.0 mm 0.00 in0.0 mm
06:00 AM 12.3°F-10.9°C 10.7°F-11.8°C 93% Calm Calm 1.2 mph1.9 kmh 29.62 in1003.0 mb - 0.00 in0.0 mm 0.00 in0.0 mm
06:30 AM 13.8°F-10.1°C 12.4°F-10.9°C 94% Calm Calm 1.2 mph1.9 kmh 29.62 in1003.0 mb - 0.00 in0.0 mm 0.00 in0.0 mm
07:00 AM 15.6°F-9.1°C 14.2°F-9.9°C 94% 2.3 mph NW3.7 kmh NW 3.5 mph5.6 kmh 29.61 in1002.7 mb - 0.00 in0.0 mm 0.00 in0.0 mm
07:30 AM 15.7°F-9.1°C 14.3°F-9.8°C 94% Calm Calm 1.2 mph1.9 kmh 29.62 in1003.0 mb - 0.00 in0.0 mm 0.00 in0.0 mm
08:00 AM 16.6°F-8.6°C 15.4°F-9.2°C 95% 1.2 mph NW1.9 kmh NW 2.3 mph3.7 kmh 29.62 in1003.0 mb - 0.00 in0.0 mm 0.00 in0.0 mm
08:30 AM 15.9°F-8.9°C 14.4°F-9.8°C 94% Calm Calm 1.2 mph1.9 kmh 29.62 in1003.0 mb - 0.00 in0.0 mm 0.00 in0.0 mm
09:00 AM 17.4°F-8.1°C 16.2°F-8.8°C 95% Calm Calm 1.2 mph1.9 kmh 29.61 in1002.7 mb - 0.00 in0.0 mm 0.00 in0.0 mm
09:30 AM 18.4°F-7.6°C 17.2°F-8.2°C 95% Calm Calm 1.2 mph1.9 kmh 29.62 in1003.0 mb - 0.00 in0.0 mm 0.00 in0.0 mm
10:00 AM 20.0°F-6.7°C 18.8°F-7.3°C 95% 1.2 mph WSW1.9 kmh WSW 2.3 mph3.7 kmh 29.62 in1003.0 mb - 0.00 in0.0 mm 0.00 in0.0 mm
10:30 AM 20.2°F-6.6°C 19.0°F-7.2°C 95% 1.2 mph NNW1.9 kmh NNW 2.3 mph3.7 kmh 29.62 in1003.0 mb - 0.00 in0.0 mm 0.00 in0.0 mm
11:00 AM 20.9°F-6.2°C 19.7°F-6.8°C 95% 1.2 mph NW1.9 kmh NW 2.3 mph3.7 kmh 29.61 in1002.7 mb - 0.00 in0.0 mm 0.00 in0.0 mm
11:30 AM 20.9°F-6.2°C 19.7°F-6.8°C 95% 2.3 mph NNW3.7 kmh NNW 2.3 mph3.7 kmh 29.61 in1002.7 mb - 0.00 in0.0 mm 0.00 in0.0 mm
12:00 PM 21.4°F-5.9°C 20.2°F-6.6°C 95% 1.2 mph WNW1.9 kmh WNW 2.3 mph3.7 kmh 29.60 in1002.4 mb - 0.00 in0.0 mm 0.00 in0.0 mm
12:30 PM 21.4°F-5.9°C 20.2°F-6.6°C 95% 1.2 mph WSW1.9 kmh WSW 3.5 mph5.6 kmh 29.61 in1002.7 mb - 0.00 in0.0 mm 0.00 in0.0 mm
01:00 PM 22.0°F-5.6°C 20.8°F-6.2°C 95% 3.5 mph NW5.6 kmh NW 3.5 mph5.6 kmh 29.59 in1002.0 mb - 0.00 in0.0 mm 0.00 in0.0 mm
01:30 PM 22.0°F-5.6°C 21.1°F-6.1°C 96% 2.3 mph N3.7 kmh N 3.5 mph5.6 kmh 29.59 in1002.0 mb - 0.00 in0.0 mm 0.00 in0.0 mm
02:00 PM 22.6°F-5.2°C 21.6°F-5.8°C 96% 1.2 mph NNW1.9 kmh NNW 3.5 mph5.6 kmh 29.59 in1002.0 mb - 0.00 in0.0 mm 0.00 in0.0 mm
02:30 PM 22.6°F-5.2°C 21.7°F-5.7°C 96% 2.3 mph NW3.7 kmh NW 3.5 mph5.6 kmh 29.59 in1002.0 mb - 0.00 in0.0 mm 0.00 in0.0 mm
03:00 PM 23.1°F-4.9°C 22.1°F-5.5°C 96% 2.3 mph NW3.7 kmh NW 3.5 mph5.6 kmh 29.59 in1002.0 mb - 0.00 in0.0 mm 0.00 in0.0 mm
03:30 PM 21.8°F-5.7°C 20.8°F-6.2°C 96% 2.3 mph WSW3.7 kmh WSW 3.5 mph5.6 kmh 29.60 in1002.4 mb - 0.00 in0.0 mm 0.00 in0.0 mm
04:00 PM 20.8°F-6.2°C 19.9°F-6.7°C 96% 2.3 mph W3.7 kmh W 3.5 mph5.6 kmh 29.60 in1002.4 mb - 0.00 in0.0 mm 0.00 in0.0 mm
04:30 PM 21.2°F-6.0°C 20.2°F-6.6°C 96% 1.2 mph NW1.9 kmh NW 2.3 mph3.7 kmh 29.60 in1002.4 mb - 0.00 in0.0 mm 0.00 in0.0 mm
05:00 PM 20.4°F-6.4°C 19.4°F-7.0°C 96% 1.2 mph NW1.9 kmh NW 3.5 mph5.6 kmh 29.60 in1002.4 mb - 0.00 in0.0 mm 0.00 in0.0 mm
05:30 PM 19.8°F-6.8°C 18.8°F-7.3°C 96% 2.3 mph NW3.7 kmh NW 3.5 mph5.6 kmh 29.60 in1002.4 mb - 0.00 in0.0 mm 0.00 in0.0 mm
06:00 PM 19.6°F-6.9°C 18.4°F-7.6°C 95% 1.2 mph W1.9 kmh W 2.3 mph3.7 kmh 29.60 in1002.4 mb - 0.00 in0.0 mm 0.00 in0.0 mm
06:30 PM 18.4°F-7.6°C 17.2°F-8.2°C 95% 3.5 mph WSW5.6 kmh WSW 5.8 mph9.3 kmh 29.61 in1002.7 mb - 0.00 in0.0 mm 0.00 in0.0 mm
07:00 PM 16.9°F-8.4°C 15.4°F-9.2°C 94% Calm Calm 1.2 mph1.9 kmh 29.61 in1002.7 mb - 0.00 in0.0 mm 0.00 in0.0 mm
07:30 PM 16.1°F-8.8°C 14.6°F-9.7°C 94% Calm Calm -- 29.62 in1003.0 mb - 0.00 in0.0 mm 0.00 in0.0 mm
08:00 PM 16.0°F-8.9°C 14.6°F-9.7°C 94% Calm Calm -- 29.63 in1003.4 mb - 0.00 in0.0 mm 0.00 in0.0 mm
08:30 PM 15.7°F-9.1°C 14.3°F-9.8°C 94% Calm Calm 1.2 mph1.9 kmh 29.63 in1003.4 mb - 0.00 in0.0 mm 0.00 in0.0 mm
09:00 PM 15.2°F-9.3°C 13.8°F-10.1°C 94% 1.2 mph WSW1.9 kmh WSW 1.2 mph1.9 kmh 29.63 in1003.4 mb - 0.00 in0.0 mm 0.00 in0.0 mm
09:30 PM 15.1°F-9.4°C 13.7°F-10.2°C 94% 2.3 mph WSW3.7 kmh WSW 2.3 mph3.7 kmh 29.63 in1003.4 mb - 0.00 in0.0 mm 0.00 in0.0 mm
10:00 PM 15.4°F-9.2°C 14.0°F-10.0°C 94% Calm Calm 1.2 mph1.9 kmh 29.63 in1003.4 mb - 0.00 in0.0 mm 0.00 in0.0 mm
10:30 PM 14.8°F-9.6°C 13.1°F-10.5°C 93% 2.3 mph SSE3.7 kmh SSE 3.5 mph5.6 kmh 29.64 in1003.7 mb - 0.00 in0.0 mm 0.00 in0.0 mm
11:00 PM 15.8°F-9.0°C 14.4°F-9.8°C 94% Calm Calm 1.2 mph1.9 kmh 29.64 in1003.7 mb - 0.00 in0.0 mm 0.00 in0.0 mm
11:30 PM 17.1°F-8.3°C 15.7°F-9.1°C 94% 1.2 mph E1.9 kmh E 3.5 mph5.6 kmh 29.64 in1003.7 mb - 0.00 in0.0 mm 0.00 in0.0 mm